Time;durP1;ratioP1;P1;durP2;ratioP2;P2;SDS_P1;SDS_P2;PMS_P1;PMS_P2;Temp;Humidity;BMP_temperature;BMP_pressure;BME280_temperature;BME280_humidity;BME280_pressure;Samples;Min_cycle;Max_cycle;Signal;HPM_P1;HPM_P2
2022/07/20 00:01:43;;;;;;;5.15;2.75;;;26.30;79.70;;;;;;5074372;28;20040;-65
2022/07/20 00:04:09;;;;;;;11.80;3.60;;;26.20;79.70;;;;;;5074364;28;20394;-65
2022/07/20 00:06:35;;;;;;;6.25;2.75;;;26.20;79.80;;;;;;5074050;28;20040;-65
2022/07/20 00:11:46;;;;;;;5.10;3.10;;;26.10;79.70;;;;;;5074032;28;20600;-64
2022/07/20 00:14:12;;;;;;;8.10;2.90;;;26.00;79.90;;;;;;5074027;28;20060;-65
2022/07/20 00:16:37;;;;;;;7.30;2.78;;;26.00;80.00;;;;;;5074210;28;20467;-64
2022/07/20 00:19:04;;;;;;;6.15;3.17;;;25.90;80.20;;;;;;5074132;28;20036;-64
2022/07/20 00:21:30;;;;;;;5.57;2.72;;;25.90;80.10;;;;;;5073969;28;20036;-65
2022/07/20 00:23:55;;;;;;;5.70;2.97;;;25.90;80.10;;;;;;5073904;28;20115;-65
2022/07/20 00:26:22;;;;;;;10.70;2.70;;;25.80;80.10;;;;;;5073829;28;20583;-65
2022/07/20 00:28:50;;;;;;;10.52;3.38;;;25.80;80.20;;;;;;5073887;28;20127;-64
2022/07/20 00:31:16;;;;;;;10.73;3.10;;;25.80;80.20;;;;;;5073994;28;20032;-64
2022/07/20 00:33:46;;;;;;;6.85;3.08;;;25.70;80.30;;;;;;5073667;28;20115;-65
2022/07/20 00:36:13;;;;;;;7.25;2.90;;;25.70;80.60;;;;;;5072520;28;20453;-65
2022/07/20 00:38:38;;;;;;;8.88;3.15;;;25.60;80.60;;;;;;5073906;28;20079;-65
2022/07/20 00:41:04;;;;;;;5.32;2.75;;;25.60;80.50;;;;;;5073825;28;20432;-64
2022/07/20 00:43:57;;;;;;;10.63;2.63;;;25.50;80.70;;;;;;5073838;28;20080;-65
2022/07/20 00:46:22;;;;;;;5.10;2.65;;;25.50;80.50;;;;;;5073840;28;20115;-64
2022/07/20 00:48:48;;;;;;;7.30;2.97;;;25.40;81.10;;;;;;5073544;28;20119;-64
2022/07/20 00:51:14;;;;;;;7.80;3.00;;;25.40;80.90;;;;;;5073740;28;20395;-65
2022/07/20 00:53:40;;;;;;;5.00;2.78;;;25.40;81.20;;;;;;5073764;28;20032;-65
2022/07/20 00:56:07;;;;;;;7.85;2.95;;;25.30;81.60;;;;;;5073624;28;20116;-65
2022/07/20 00:58:33;;;;;;;6.20;3.08;;;25.30;81.60;;;;;;5073683;28;20045;-65
2022/07/20 01:00:59;;;;;;;12.55;3.55;;;25.20;81.40;;;;;;5073689;28;20052;-65
2022/07/20 01:03:24;;;;;;;4.65;2.97;;;25.20;81.60;;;;;;5073534;28;20044;-65
2022/07/20 01:05:50;;;;;;;12.60;3.13;;;25.10;82.20;;;;;;5072448;28;20040;-65
2022/07/20 01:08:15;;;;;;;6.53;2.78;;;25.10;82.10;;;;;;5073500;28;20487;-64
2022/07/20 01:10:41;;;;;;;9.35;2.80;;;25.00;82.20;;;;;;5073740;28;20040;-64
2022/07/20 01:13:07;;;;;;;6.47;2.67;;;25.00;82.50;;;;;;5073314;28;20041;-65
2022/07/20 01:15:32;;;;;;;8.43;3.00;;;24.90;83.00;;;;;;5073494;28;20037;-65
2022/07/20 01:17:58;;;;;;;6.18;3.28;;;24.90;82.80;;;;;;5073461;28;20047;-64
2022/07/20 01:20:25;;;;;;;4.18;2.97;;;24.80;83.20;;;;;;5075790;28;20052;-64
2022/07/20 01:22:51;;;;;;;8.48;3.10;;;24.70;83.40;;;;;;5077271;28;20466;-64
2022/07/20 01:25:17;;;;;;;19.85;3.33;;;24.70;83.50;;;;;;5077150;28;20032;-63
2022/07/20 01:27:43;;;;;;;6.03;3.17;;;24.60;83.50;;;;;;5077293;28;20040;-64
2022/07/20 01:30:09;;;;;;;6.82;2.70;;;24.60;83.70;;;;;;5077144;28;20090;-64
2022/07/20 01:32:35;;;;;;;6.15;2.67;;;24.50;84.20;;;;;;5077197;28;20064;-64
2022/07/20 01:35:01;;;;;;;7.53;3.88;;;24.50;84.60;;;;;;5077317;28;20446;-64
2022/07/20 01:37:28;;;;;;;4.85;2.60;;;24.40;84.60;;;;;;5076936;28;20471;-64
2022/07/20 01:39:53;;;;;;;10.23;3.40;;;24.40;84.90;;;;;;5076915;28;20036;-64
2022/07/20 01:42:19;;;;;;;6.07;2.70;;;24.40;84.80;;;;;;5076922;28;20047;-65
2022/07/20 01:44:45;;;;;;;5.75;2.60;;;24.30;84.70;;;;;;5076860;28;20036;-65
2022/07/20 01:47:10;;;;;;;8.45;2.97;;;24.30;84.50;;;;;;5075632;28;20055;-64
2022/07/20 01:49:36;;;;;;;6.63;2.92;;;24.30;84.50;;;;;;5076719;28;20040;-64
2022/07/20 01:52:02;;;;;;;8.18;3.35;;;24.30;84.50;;;;;;5076911;28;20028;-64
2022/07/20 01:54:28;;;;;;;9.20;3.40;;;24.20;84.50;;;;;;5076850;28;20379;-64
2022/07/20 01:56:53;;;;;;;8.10;2.67;;;24.20;84.30;;;;;;5076595;28;20036;-64
2022/07/20 01:59:19;;;;;;;12.75;2.80;;;24.20;84.30;;;;;;5076773;28;20047;-65
2022/07/20 02:01:45;;;;;;;6.95;2.90;;;24.20;84.30;;;;;;5076534;28;20497;-64
2022/07/20 02:04:10;;;;;;;9.43;3.08;;;24.10;84.30;;;;;;5076594;28;20028;-64
2022/07/20 02:06:36;;;;;;;6.47;2.90;;;24.10;84.40;;;;;;5076697;28;20477;-64
2022/07/20 02:09:02;;;;;;;7.13;3.20;;;24.10;85.10;;;;;;5076332;28;20084;-65
2022/07/20 02:11:28;;;;;;;4.78;3.00;;;24.00;84.50;;;;;;5075126;28;20049;-64
2022/07/20 02:13:53;;;;;;;5.07;3.08;;;24.00;84.60;;;;;;5076338;28;20036;-65
2022/07/20 02:16:19;;;;;;;6.25;3.30;;;23.90;84.70;;;;;;5076406;28;20111;-64
2022/07/20 02:18:51;;;;;;;6.38;2.70;;;23.90;84.80;;;;;;5076509;28;20540;-64
2022/07/20 02:21:19;;;;;;;11.63;3.20;;;23.90;85.20;;;;;;5076369;28;20040;-64
2022/07/20 02:23:46;;;;;;;11.05;3.25;;;23.90;84.60;;;;;;5075135;28;20041;-64
2022/07/20 02:26:12;;;;;;;6.32;3.30;;;23.80;84.70;;;;;;5075861;28;20052;-64
2022/07/20 02:28:39;;;;;;;4.18;2.90;;;23.80;85.00;;;;;;5076038;28;20501;-65
2022/07/20 02:31:05;;;;;;;7.35;3.40;;;23.80;85.10;;;;;;5075013;28;20044;-65
2022/07/20 02:33:31;;;;;;;6.43;3.28;;;23.80;84.70;;;;;;5076077;28;20383;-64
2022/07/20 02:35:57;;;;;;;4.82;2.80;;;23.80;84.90;;;;;;5076038;28;20423;-64
2022/07/20 02:38:23;;;;;;;8.57;2.90;;;23.70;84.90;;;;;;5076046;28;20383;-64
2022/07/20 02:40:49;;;;;;;7.07;2.90;;;23.70;84.80;;;;;;5075990;28;20036;-64
2022/07/20 02:43:15;;;;;;;7.03;3.20;;;23.70;84.50;;;;;;5075852;28;20181;-64
2022/07/20 02:45:41;;;;;;;6.22;3.03;;;23.70;84.50;;;;;;5075809;28;20033;-64
2022/07/20 02:48:06;;;;;;;7.28;3.10;;;23.70;84.60;;;;;;5075688;28;20048;-64
2022/07/20 02:50:37;;;;;;;5.82;3.00;;;23.70;84.60;;;;;;5076325;28;20171;-65
2022/07/20 02:53:02;;;;;;;6.82;2.92;;;23.70;84.80;;;;;;5075764;28;20063;-65
2022/07/20 02:55:28;;;;;;;7.13;3.13;;;23.60;84.80;;;;;;5075761;28;20126;-64
2022/07/20 02:57:54;;;;;;;7.18;3.33;;;23.60;85.10;;;;;;5075277;28;20105;-64
2022/07/20 03:00:20;;;;;;;12.73;3.15;;;23.50;85.30;;;;;;5075657;28;20115;-64
2022/07/20 03:02:47;;;;;;;6.55;2.80;;;23.50;85.20;;;;;;5075354;28;20375;-63
2022/07/20 03:05:13;;;;;;;4.97;3.05;;;23.50;85.20;;;;;;5075504;28;20029;-65
2022/07/20 03:07:39;;;;;;;5.55;3.33;;;23.50;85.30;;;;;;5075413;28;20097;-64
2022/07/20 03:10:05;;;;;;;6.53;3.00;;;23.50;85.20;;;;;;5075278;28;20044;-64
2022/07/20 03:12:32;;;;;;;10.40;3.20;;;23.50;85.40;;;;;;5074084;28;20093;-64
2022/07/20 03:14:57;;;;;;;9.32;3.40;;;23.40;85.30;;;;;;5075302;28;20043;-64
2022/07/20 03:17:23;;;;;;;7.13;3.40;;;23.40;85.30;;;;;;5075268;28;20041;-64
2022/07/20 03:19:49;;;;;;;7.90;3.25;;;23.40;85.60;;;;;;5073751;28;20095;-64
2022/07/20 03:22:14;;;;;;;5.07;2.90;;;23.40;86.20;;;;;;5075156;28;20064;-64
2022/07/20 03:24:40;;;;;;;4.55;3.10;;;23.30;85.90;;;;;;5075079;28;20044;-64
2022/07/20 03:27:06;;;;;;;11.05;3.25;;;23.30;86.20;;;;;;5074713;28;20059;-64
2022/07/20 03:29:32;;;;;;;5.47;2.80;;;23.20;85.70;;;;;;5074951;28;20032;-64
2022/07/20 03:31:57;;;;;;;7.00;3.28;;;23.30;85.40;;;;;;5073588;28;20442;-64
2022/07/20 03:34:23;;;;;;;7.75;3.20;;;23.30;85.50;;;;;;5074856;28;20044;-64
2022/07/20 03:36:49;;;;;;;6.82;2.80;;;23.20;85.80;;;;;;5074832;28;20036;-64
2022/07/20 03:39:15;;;;;;;9.82;3.17;;;23.20;85.60;;;;;;5074718;28;20170;-64
2022/07/20 03:41:41;;;;;;;6.63;3.25;;;23.20;85.70;;;;;;5074306;28;20055;-64
2022/07/20 03:44:07;;;;;;;8.07;3.40;;;23.20;85.20;;;;;;5074804;28;20041;-64
2022/07/20 03:46:33;;;;;;;7.50;3.50;;;23.20;85.50;;;;;;5074738;28;20036;-65
2022/07/20 03:48:58;;;;;;;9.40;3.65;;;23.20;85.60;;;;;;5074550;28;20036;-64
2022/07/20 03:51:24;;;;;;;8.00;2.88;;;23.20;85.90;;;;;;5074532;28;20111;-64
2022/07/20 03:53:50;;;;;;;7.30;2.85;;;23.20;86.20;;;;;;5074412;28;20066;-64
2022/07/20 03:56:15;;;;;;;8.02;3.22;;;23.20;85.70;;;;;;5073088;28;20047;-64
2022/07/20 03:58:41;;;;;;;8.30;3.92;;;23.20;85.70;;;;;;5074461;28;20033;-65
2022/07/20 04:01:07;;;;;;;6.60;3.00;;;23.20;85.70;;;;;;5074307;28;20044;-65
2022/07/20 04:03:32;;;;;;;8.82;3.00;;;23.20;85.90;;;;;;5074358;28;20475;-65
2022/07/20 04:05:59;;;;;;;6.32;2.90;;;23.10;86.00;;;;;;5074317;28;20119;-65
2022/07/20 04:08:24;;;;;;;7.07;2.95;;;23.10;86.00;;;;;;5074092;28;20033;-65
2022/07/20 04:10:50;;;;;;;4.82;3.13;;;23.10;86.20;;;;;;5074117;28;20032;-65
2022/07/20 04:13:16;;;;;;;10.77;3.25;;;23.10;86.20;;;;;;5074238;28;20379;-65
2022/07/20 04:15:41;;;;;;;6.13;3.13;;;23.10;86.10;;;;;;5074174;28;20181;-64
2022/07/20 04:18:07;;;;;;;6.25;3.40;;;23.10;85.80;;;;;;5074124;28;20051;-65
2022/07/20 04:20:32;;;;;;;8.18;3.30;;;23.10;85.80;;;;;;5074197;28;20048;-64
2022/07/20 04:22:58;;;;;;;5.47;3.22;;;23.10;85.70;;;;;;5073944;28;20037;-64
2022/07/20 04:25:24;;;;;;;5.07;2.72;;;23.20;85.80;;;;;;5073818;28;20076;-65
2022/07/20 04:27:50;;;;;;;7.45;3.10;;;23.10;86.20;;;;;;5074025;28;20053;-65
2022/07/20 04:30:16;;;;;;;5.20;2.97;;;23.10;86.70;;;;;;5074304;28;20048;-65
2022/07/20 04:32:43;;;;;;;7.53;3.03;;;23.10;87.00;;;;;;5073937;28;20036;-65
2022/07/20 04:35:10;;;;;;;7.43;3.53;;;23.10;87.20;;;;;;5072440;28;20471;-65
2022/07/20 04:37:36;;;;;;;7.68;3.17;;;23.10;87.50;;;;;;5073820;28;20491;-65
2022/07/20 04:40:04;;;;;;;4.65;3.05;;;23.10;88.00;;;;;;5073775;28;20058;-65
2022/07/20 04:42:30;;;;;;;8.20;3.35;;;23.10;88.00;;;;;;5073598;28;20040;-65
2022/07/20 04:44:56;;;;;;;8.00;3.00;;;23.10;88.00;;;;;;5073574;28;20479;-65
2022/07/20 04:47:22;;;;;;;11.80;2.97;;;23.10;87.70;;;;;;5073789;28;20086;-66
2022/07/20 04:49:48;;;;;;;5.68;2.90;;;23.20;88.20;;;;;;5073757;28;20094;-65
2022/07/20 04:52:13;;;;;;;5.20;2.92;;;23.20;88.90;;;;;;5073555;28;20360;-65
2022/07/20 04:54:40;;;;;;;11.38;3.50;;;23.20;89.30;;;;;;5073036;28;20039;-65
2022/07/20 04:57:06;;;;;;;9.93;3.30;;;23.20;88.70;;;;;;5072342;28;20040;-66
2022/07/20 04:59:32;;;;;;;6.72;3.30;;;23.20;88.80;;;;;;5073686;28;20048;-66
2022/07/20 05:01:57;;;;;;;6.97;3.17;;;23.30;88.20;;;;;;5074034;28;20085;-66
2022/07/20 05:04:23;;;;;;;5.13;3.05;;;23.30;87.90;;;;;;5073684;28;20116;-66
2022/07/20 05:06:49;;;;;;;7.70;3.05;;;23.30;89.10;;;;;;5073546;28;20489;-65
2022/07/20 05:09:14;;;;;;;4.03;3.00;;;23.30;89.80;;;;;;5073512;28;20372;-65
2022/07/20 05:11:40;;;;;;;6.90;3.10;;;23.40;89.40;;;;;;5073632;28;20051;-65
2022/07/20 05:14:08;;;;;;;5.38;3.13;;;23.40;89.30;;;;;;5072380;28;20360;-65
2022/07/20 05:16:34;;;;;;;8.07;3.45;;;23.40;89.30;;;;;;5073589;28;20426;-65
2022/07/20 05:19:00;;;;;;;14.18;3.40;;;23.50;88.90;;;;;;5073359;28;20090;-65
2022/07/20 05:21:25;;;;;;;7.85;3.15;;;23.50;88.90;;;;;;5073330;28;20082;-65
2022/07/20 05:23:51;;;;;;;7.22;3.00;;;23.60;89.80;;;;;;5073438;28;20048;-65
2022/07/20 05:26:17;;;;;;;6.22;2.92;;;23.60;89.60;;;;;;5073241;28;20068;-65
2022/07/20 05:28:42;;;;;;;5.80;3.20;;;23.60;90.10;;;;;;5073325;28;20049;-65
2022/07/20 05:31:09;;;;;;;7.47;3.67;;;23.70;90.60;;;;;;5073203;28;20111;-65
2022/07/20 05:33:35;;;;;;;8.68;4.00;;;23.80;90.30;;;;;;5073318;28;20039;-65
2022/07/20 05:36:02;;;;;;;5.07;3.13;;;23.80;90.60;;;;;;5073306;28;20048;-65
2022/07/20 05:38:29;;;;;;;6.47;3.40;;;23.90;90.30;;;;;;5073258;28;20652;-65
2022/07/20 05:40:55;;;;;;;5.53;3.28;;;23.90;90.50;;;;;;5073333;28;20119;-65
2022/07/20 05:43:21;;;;;;;5.60;2.88;;;24.00;90.60;;;;;;5073250;28;20075;-65
2022/07/20 05:45:46;;;;;;;5.90;2.80;;;24.10;90.60;;;;;;5073261;28;20039;-65
2022/07/20 05:48:12;;;;;;;5.10;2.90;;;24.10;90.80;;;;;;5073119;28;20041;-65
2022/07/20 05:50:39;;;;;;;9.38;3.20;;;24.20;90.80;;;;;;5072236;28;20032;-66
2022/07/20 05:53:05;;;;;;;4.43;2.80;;;24.30;90.80;;;;;;5072922;28;20113;-66
2022/07/20 05:55:32;;;;;;;7.68;3.10;;;24.30;90.50;;;;;;5073558;28;20037;-66
2022/07/20 05:57:58;;;;;;;7.40;3.47;;;24.40;90.30;;;;;;5073116;28;20104;-65
2022/07/20 06:00:23;;;;;;;13.68;4.30;;;24.50;89.00;;;;;;5071980;28;20107;-66
2022/07/20 06:02:49;;;;;;;5.85;3.42;;;24.70;88.10;;;;;;5073075;28;20032;-66
2022/07/20 06:05:15;;;;;;;5.90;3.20;;;24.70;88.60;;;;;;5074444;28;20433;-65
2022/07/20 06:07:40;;;;;;;7.72;3.70;;;24.80;89.50;;;;;;5076335;28;20124;-65
2022/07/20 06:10:07;;;;;;;7.03;3.65;;;24.90;89.60;;;;;;5076414;28;20033;-66
2022/07/20 06:12:32;;;;;;;4.60;3.25;;;25.00;88.80;;;;;;5076524;28;20036;-66
2022/07/20 06:14:58;;;;;;;9.40;3.30;;;25.10;87.90;;;;;;5076531;28;20043;-65
2022/07/20 06:17:23;;;;;;;7.25;3.50;;;25.10;89.00;;;;;;5076266;28;20041;-66
2022/07/20 06:19:49;;;;;;;3.75;3.10;;;25.30;86.60;;;;;;5076774;28;20040;-66
2022/07/20 06:22:15;;;;;;;8.60;4.07;;;25.40;86.70;;;;;;5076314;28;20044;-66
2022/07/20 06:24:40;;;;;;;8.68;3.55;;;25.50;86.40;;;;;;5076185;28;20116;-66
2022/07/20 06:27:06;;;;;;;4.07;3.22;;;25.60;87.00;;;;;;5076148;28;20056;-66
2022/07/20 06:29:32;;;;;;;11.07;3.63;;;25.70;87.40;;;;;;5076169;28;20048;-67
2022/07/20 06:31:57;;;;;;;13.73;3.80;;;25.80;88.00;;;;;;5076231;28;20040;-67
2022/07/20 06:34:23;;;;;;;8.73;3.65;;;26.00;88.80;;;;;;5076064;28;20442;-66
2022/07/20 06:36:48;;;;;;;13.63;4.05;;;26.10;88.80;;;;;;5074892;28;20036;-67
2022/07/20 06:39:14;;;;;;;10.25;3.38;;;26.20;88.50;;;;;;5075946;28;20391;-67
2022/07/20 06:41:40;;;;;;;7.93;3.28;;;26.20;88.20;;;;;;5074887;28;20032;-66
2022/07/20 06:44:05;;;;;;;6.03;3.30;;;26.40;88.10;;;;;;5075808;28;20089;-66
2022/07/20 06:46:31;;;;;;;9.00;4.07;;;26.50;88.60;;;;;;5075828;28;20422;-67
2022/07/20 06:48:56;;;;;;;5.60;3.65;;;26.80;89.10;;;;;;5075679;28;20048;-67
2022/07/20 06:51:24;;;;;;;8.18;3.90;;;27.00;89.20;;;;;;5075838;28;20040;-66
2022/07/20 06:53:50;;;;;;;7.65;4.07;;;27.10;90.30;;;;;;5075757;28;20348;-63
2022/07/20 06:56:15;;;;;;;9.48;3.70;;;27.30;88.80;;;;;;5075727;28;20043;-64
2022/07/20 06:58:41;;;;;;;9.30;4.00;;;27.90;89.00;;;;;;5075547;28;20429;-64
2022/07/20 07:01:07;;;;;;;12.50;4.07;;;28.10;87.10;;;;;;5075588;28;20040;-64
2022/07/20 07:03:33;;;;;;;8.98;3.83;;;28.70;87.10;;;;;;5075322;28;20041;-63
2022/07/20 07:05:59;;;;;;;11.30;3.88;;;29.00;87.70;;;;;;5075502;28;20048;-63
2022/07/20 07:08:24;;;;;;;7.88;3.40;;;29.40;85.30;;;;;;5075439;28;20044;-63
2022/07/20 07:10:50;;;;;;;9.40;3.70;;;29.50;83.10;;;;;;5075445;28;20436;-63
2022/07/20 07:13:16;;;;;;;9.23;4.15;;;29.60;83.00;;;;;;5075453;28;20380;-63
2022/07/20 07:15:41;;;;;;;11.10;3.78;;;29.70;80.70;;;;;;5075004;28;20032;-63
2022/07/20 07:18:07;;;;;;;8.75;4.00;;;29.90;81.60;;;;;;5073347;28;20040;-63
2022/07/20 07:20:33;;;;;;;11.38;5.00;;;30.00;81.00;;;;;;5072440;28;20036;-63
2022/07/20 07:22:58;;;;;;;10.30;3.40;;;30.40;81.10;;;;;;5069737;28;20117;-63
2022/07/20 07:25:24;;;;;;;11.18;4.20;;;30.40;81.00;;;;;;5075347;28;20043;-63
2022/07/20 07:27:49;;;;;;;23.05;3.92;;;30.50;80.60;;;;;;5075080;28;20056;-63
2022/07/20 07:30:15;;;;;;;10.00;3.78;;;30.80;81.90;;;;;;5075469;28;20165;-63
2022/07/20 07:32:42;;;;;;;10.48;3.85;;;31.00;81.60;;;;;;5075202;28;20525;-62
2022/07/20 07:35:08;;;;;;;7.90;4.07;;;31.30;81.70;;;;;;5074664;28;20045;-63
2022/07/20 07:37:37;;;;;;;8.02;3.45;;;31.60;82.10;;;;;;5075109;28;20394;-64
2022/07/20 07:40:03;;;;;;;6.15;3.95;;;31.90;82.10;;;;;;5074032;28;20036;-63
2022/07/20 07:42:29;;;;;;;9.82;4.90;;;32.10;82.10;;;;;;5074794;28;20554;-63
2022/07/20 07:44:54;;;;;;;15.93;5.07;;;31.70;81.20;;;;;;5075311;28;20072;-62
2022/07/20 07:47:20;;;;;;;10.15;4.95;;;31.90;81.70;;;;;;5075116;28;20054;-62
2022/07/20 07:49:45;;;;;;;10.00;4.78;;;31.90;81.70;;;;;;5073330;28;20040;-62
2022/07/20 07:52:11;;;;;;;12.30;4.95;;;32.10;82.80;;;;;;5054682;28;20048;-63
2022/07/20 07:54:37;;;;;;;25.67;6.82;;;32.50;82.80;;;;;;5055289;28;20364;-62
2022/07/20 07:57:02;;;;;;;17.35;5.85;;;32.40;81.70;;;;;;5075031;28;20032;-63
2022/07/20 07:59:28;;;;;;;15.02;6.05;;;32.10;82.30;;;;;;5074922;28;20105;-63
2022/07/20 08:01:54;;;;;;;23.23;8.27;;;32.10;83.00;;;;;;5074870;28;20033;-63
2022/07/20 08:04:20;;;;;;;21.42;7.05;;;32.10;83.00;;;;;;5074375;28;20040;-63
2022/07/20 08:06:47;;;;;;;22.67;6.75;;;32.20;84.10;;;;;;5074091;28;20040;-62
2022/07/20 08:09:12;;;;;;;24.83;7.53;;;32.30;83.50;;;;;;5072276;28;20056;-62
2022/07/20 08:11:38;;;;;;;13.10;7.43;;;32.40;84.10;;;;;;5074111;28;20501;-63
2022/07/20 08:14:04;;;;;;;10.65;6.82;;;32.40;83.80;;;;;;5058261;28;20044;-63
2022/07/20 08:16:31;;;;;;;21.98;7.93;;;31.90;84.80;;;;;;5065739;28;20040;-62
2022/07/20 08:18:56;;;;;;;14.65;7.68;;;32.10;85.60;;;;;;5073841;28;20040;-63
2022/07/20 08:21:22;;;;;;;17.30;8.55;;;32.00;85.40;;;;;;5074335;28;20105;-63
2022/07/20 08:23:48;;;;;;;17.58;8.65;;;32.00;86.10;;;;;;5074414;28;20414;-64
2022/07/20 08:26:13;;;;;;;18.40;9.07;;;32.20;86.10;;;;;;5074201;28;20533;-62
2022/07/20 08:28:40;;;;;;;14.18;8.18;;;32.30;86.40;;;;;;5072727;28;20410;-64
2022/07/20 08:31:06;;;;;;;16.55;9.38;;;32.30;86.90;;;;;;5073864;28;20082;-63
2022/07/20 08:33:31;;;;;;;14.40;9.63;;;32.30;86.40;;;;;;5073989;28;20044;-64
2022/07/20 08:35:57;;;;;;;19.45;10.13;;;32.20;86.80;;;;;;5073872;28;20388;-64
2022/07/20 08:38:22;;;;;;;16.02;9.85;;;32.20;88.00;;;;;;5072597;28;20067;-65
2022/07/20 08:40:48;;;;;;;17.08;10.20;;;32.20;88.20;;;;;;5074277;28;20048;-64
2022/07/20 08:43:15;;;;;;;17.75;10.93;;;31.90;88.80;;;;;;5073733;28;20048;-63
2022/07/20 08:45:42;;;;;;;21.85;12.57;;;31.90;89.40;;;;;;5073049;28;20106;-63
2022/07/20 08:48:11;;;;;;;17.60;11.70;;;31.80;90.10;;;;;;5069738;28;20537;-64
2022/07/20 08:50:37;;;;;;;17.38;12.63;;;31.90;90.30;;;;;;5067473;28;20039;-63
2022/07/20 08:53:03;;;;;;;23.73;13.75;;;32.10;90.30;;;;;;5073784;28;20371;-63
2022/07/20 08:55:29;;;;;;;27.35;13.13;;;32.10;90.50;;;;;;5074088;28;20115;-63
2022/07/20 08:57:56;;;;;;;25.02;13.93;;;32.00;90.50;;;;;;5072983;28;20459;-63
2022/07/20 09:00:22;;;;;;;22.88;13.27;;;32.10;90.80;;;;;;5074051;28;20084;-63
2022/07/20 09:02:52;;;;;;;25.10;13.23;;;32.20;90.70;;;;;;5073613;28;20033;-63
2022/07/20 09:05:20;;;;;;;26.00;14.65;;;32.30;90.90;;;;;;5074105;28;20047;-63
2022/07/20 09:07:48;;;;;;;24.52;15.80;;;32.20;91.00;;;;;;5073987;28;20376;-63
2022/07/20 09:10:17;;;;;;;27.58;15.95;;;31.90;91.20;;;;;;5073304;28;20086;-63
2022/07/20 09:12:59;;;;;;;25.60;15.63;;;32.10;91.50;;;;;;5073431;28;20051;-63
2022/07/20 09:15:31;;;;;;;28.00;16.83;;;32.00;91.60;;;;;;5073200;28;20045;-63
2022/07/20 09:18:11;;;;;;;27.00;16.45;;;32.10;91.50;;;;;;5073647;28;20032;-63
2022/07/20 09:20:59;;;;;;;24.45;17.27;;;32.00;91.40;;;;;;5073409;28;20036;-63
2022/07/20 09:23:43;;;;;;;23.92;16.45;;;32.10;91.80;;;;;;5070721;28;20045;-65
2022/07/20 09:26:12;;;;;;;26.45;17.15;;;32.00;91.60;;;;;;5053466;28;20491;-64
2022/07/20 09:28:45;;;;;;;27.58;16.75;;;32.10;92.10;;;;;;5053327;28;20132;-64
2022/07/20 09:31:14;;;;;;;27.08;16.30;;;32.10;91.90;;;;;;5053828;28;20041;-65
2022/07/20 09:33:57;;;;;;;29.60;17.85;;;32.00;91.90;;;;;;5053735;28;20128;-64
2022/07/20 09:36:30;;;;;;;24.98;17.52;;;32.00;91.80;;;;;;5053494;28;20368;-63
2022/07/20 09:39:10;;;;;;;24.33;17.02;;;31.60;91.60;;;;;;5053433;28;20048;-65
2022/07/20 09:41:39;;;;;;;28.27;19.67;;;31.60;91.90;;;;;;5057143;28;20479;-64
2022/07/20 09:44:06;;;;;;;28.48;19.30;;;31.50;92.20;;;;;;5057611;28;20044;-64
2022/07/20 09:46:34;;;;;;;28.30;19.00;;;31.60;92.20;;;;;;5057178;28;20041;-63
2022/07/20 09:49:10;;;;;;;26.98;19.27;;;31.40;92.30;;;;;;5057099;28;20037;-63
2022/07/20 09:51:42;;;;;;;30.60;18.25;;;31.40;92.20;;;;;;5057101;28;20051;-63
2022/07/20 09:54:16;;;;;;;27.98;17.65;;;31.40;92.20;;;;;;5057346;28;20120;-63
2022/07/20 09:56:50;;;;;;;27.15;17.90;;;31.60;92.20;;;;;;5057326;28;20080;-64
2022/07/20 09:59:17;;;;;;;29.55;18.48;;;31.80;91.90;;;;;;5056972;28;20040;-63
2022/07/20 10:01:46;;;;;;;25.60;16.63;;;32.00;91.90;;;;;;5071815;28;20056;-64
2022/07/20 10:04:14;;;;;;;22.33;16.30;;;32.20;91.80;;;;;;5057035;28;20103;-63
2022/07/20 10:06:42;;;;;;;21.52;15.85;;;32.50;91.70;;;;;;5056673;28;20036;-63
2022/07/20 10:09:09;;;;;;;25.70;17.90;;;32.50;91.40;;;;;;5056731;28;20479;-64
2022/07/20 10:11:36;;;;;;;26.77;17.73;;;33.00;91.40;;;;;;5056483;28;20041;-62
2022/07/20 10:14:04;;;;;;;25.27;17.75;;;33.00;91.10;;;;;;5063385;28;20297;-63
2022/07/20 10:16:42;;;;;;;27.77;17.13;;;33.00;90.90;;;;;;5076551;28;20363;-63
2022/07/20 10:19:10;;;;;;;22.20;14.00;;;32.70;89.90;;;;;;5075616;28;20119;-62
2022/07/20 10:21:48;;;;;;;22.35;15.13;;;32.40;86.80;;;;;;5076787;28;20048;-62
2022/07/20 10:24:29;;;;;;;20.33;14.90;;;32.40;87.50;;;;;;5076522;28;20090;-64
2022/07/20 10:27:16;;;;;;;20.95;13.98;;;32.40;87.60;;;;;;5075984;28;20067;-63
2022/07/20 10:29:44;;;;;;;21.92;14.10;;;32.50;88.30;;;;;;5076612;28;20090;-63
2022/07/20 10:32:14;;;;;;;22.20;13.70;;;32.30;88.40;;;;;;5076672;28;20028;-63
2022/07/20 10:34:41;;;;;;;17.15;12.77;;;32.60;86.70;;;;;;5075292;28;20044;-64
2022/07/20 10:37:24;;;;;;;20.92;12.60;;;32.40;86.40;;;;;;5074864;28;20120;-62
2022/07/20 10:39:57;;;;;;;21.65;12.48;;;32.70;87.70;;;;;;5076001;28;20433;-63
2022/07/20 10:42:30;;;;;;;18.40;12.48;;;32.60;87.10;;;;;;5076005;28;20041;-63
2022/07/20 10:45:27;;;;;;;17.67;12.98;;;32.60;86.70;;;;;;5076150;28;20045;-62
2022/07/20 10:47:54;;;;;;;13.93;10.27;;;32.40;87.00;;;;;;5058308;28;20072;-63
2022/07/20 10:50:19;;;;;;;18.98;11.38;;;32.40;85.70;;;;;;5076093;28;20089;-63
2022/07/20 10:52:46;;;;;;;17.48;10.80;;;32.40;85.70;;;;;;5058509;28;20479;-62
2022/07/20 10:55:33;;;;;;;13.57;8.55;;;32.30;84.90;;;;;;5070717;28;20364;-63
2022/07/20 10:58:09;;;;;;;13.88;9.15;;;32.40;85.60;;;;;;5075746;28;20036;-62
2022/07/20 11:00:37;;;;;;;14.52;9.60;;;32.20;86.10;;;;;;5076025;28;20436;-63
2022/07/20 11:03:14;;;;;;;;;;;32.50;86.30;;;;;;5076344;28;20047;-63
2022/07/20 11:05:40;;;;;;;17.23;9.48;;;32.80;85.90;;;;;;5075568;28;19916;-62
2022/07/20 11:08:10;;;;;;;14.65;9.07;;;32.70;86.20;;;;;;5075098;28;20033;-63
2022/07/20 11:10:37;;;;;;;17.77;9.82;;;32.90;87.40;;;;;;5075455;28;20032;-62
2022/07/20 11:13:05;;;;;;;11.93;9.70;;;33.50;86.50;;;;;;5075536;28;20454;-62
2022/07/20 11:15:40;;;;;;;;;;;33.30;85.10;;;;;;5072209;28;20479;-61
2022/07/20 11:18:08;;;;;;;18.50;8.55;;;33.30;84.70;;;;;;5055366;28;19955;-62
2022/07/20 11:20:34;;;;;;;11.05;8.75;;;33.80;85.30;;;;;;5055715;28;20029;-61
2022/07/20 11:23:03;;;;;;;14.88;9.43;;;33.20;84.90;;;;;;5068748;28;20066;-62
2022/07/20 11:26:04;;;;;;;16.10;9.30;;;32.90;84.50;;;;;;5075623;28;20040;-63
2022/07/20 11:28:34;;;;;;;14.77;9.52;;;33.00;84.40;;;;;;5052776;28;20519;-62
2022/07/20 11:31:01;;;;;;;14.35;9.10;;;33.40;83.80;;;;;;5053113;28;20056;-62
2022/07/20 11:33:27;;;;;;;11.88;9.75;;;33.80;84.60;;;;;;5052746;28;20041;-63
2022/07/20 11:35:58;;;;;;;13.65;9.20;;;33.80;84.70;;;;;;5053074;28;20590;-63
2022/07/20 11:38:35;;;;;;;14.38;8.85;;;34.00;84.40;;;;;;5053268;28;20116;-63
2022/07/20 11:41:03;;;;;;;10.80;8.43;;;34.20;83.20;;;;;;5052846;28;20492;-62
2022/07/20 11:43:29;;;;;;;15.30;9.13;;;33.90;84.20;;;;;;5052687;28;20084;-62
2022/07/20 11:46:17;;;;;;;13.15;8.30;;;34.10;83.20;;;;;;5052816;28;20126;-64
2022/07/20 11:48:45;;;;;;;15.27;9.52;;;34.20;83.90;;;;;;5053144;28;20076;-63
2022/07/20 11:51:11;;;;;;;14.88;8.65;;;34.20;83.20;;;;;;5052902;28;20076;-62
2022/07/20 11:53:40;;;;;;;17.38;9.38;;;34.50;83.50;;;;;;5052227;28;20072;-62
2022/07/20 11:56:12;;;;;;;11.52;8.02;;;34.70;83.40;;;;;;5035809;28;20084;-65
2022/07/20 11:58:38;;;;;;;12.05;7.93;;;34.50;81.10;;;;;;5052373;28;20142;-63
2022/07/20 12:01:09;;;;;;;13.73;7.18;;;34.40;81.70;;;;;;5052788;28;20043;-62
2022/07/20 12:03:37;;;;;;;12.18;6.80;;;34.30;81.20;;;;;;5054521;28;20103;-63
2022/07/20 12:06:09;;;;;;;12.95;6.75;;;34.00;81.50;;;;;;5072317;28;20116;-63
2022/07/20 12:08:35;;;;;;;12.40;7.07;;;34.10;81.90;;;;;;5074434;28;20067;-63
2022/07/20 12:11:02;;;;;;;16.83;6.70;;;34.20;82.40;;;;;;5074628;28;20052;-64
2022/07/20 12:13:27;;;;;;;15.88;7.05;;;34.30;83.10;;;;;;5074642;28;20044;-63
2022/07/20 12:15:56;;;;;;;12.93;6.57;;;34.30;82.00;;;;;;5074603;28;20371;-64
2022/07/20 12:18:52;;;;;;;9.20;6.28;;;34.10;80.70;;;;;;5074699;28;20123;-63
2022/07/20 12:21:21;;;;;;;11.90;5.90;;;34.60;81.70;;;;;;5074257;28;20048;-63
2022/07/20 12:23:52;;;;;;;9.40;6.40;;;34.50;81.50;;;;;;5074420;28;20040;-64
2022/07/20 12:26:31;;;;;;;15.98;6.97;;;34.70;81.80;;;;;;5074559;28;20044;-64
2022/07/20 12:29:15;;;;;;;;;;;35.20;81.90;;;;;;5074492;28;20045;-63
2022/07/20 12:31:41;;;;;;;15.20;6.60;;;35.10;80.40;;;;;;5074316;28;20262;-64
2022/07/20 12:34:10;;;;;;;12.18;7.63;;;35.50;80.60;;;;;;5074305;28;20047;-62
2022/07/20 12:36:43;;;;;;;8.55;6.93;;;35.60;80.10;;;;;;5074210;28;20060;-62
2022/07/20 12:39:11;;;;;;;17.50;7.40;;;35.10;78.20;;;;;;5074337;28;20471;-63
2022/07/20 12:41:38;;;;;;;13.07;7.55;;;35.10;79.00;;;;;;5073969;28;20037;-64
2022/07/20 12:44:22;;;;;;;10.85;7.65;;;35.20;78.00;;;;;;5074012;28;20040;-63
2022/07/20 12:46:48;;;;;;;11.38;7.95;;;35.00;78.80;;;;;;5073389;28;20040;-64